메인 페이지
METAR-TAF:

METAR-TAF

공항 :

Tupelo Regional Airport (C.D. Lemons Field)

투펄로, 미시시피, 미국

위도: 34-16-05N, 경도: 088-46-12W, 고도: 106m

현재 날씨관측

예보는 1 시간 1분 전, 05:53시(UTC)에 발표되었습니다.
남남동5kt
온도 25°C
습도 79%
기압 1017 hPa
시정: 16.1km
맑음

METAR: KTUP 210553Z AUTO 16005KT 10SM CLR 25/21 A3004 RMK AO2 SLP165 T02500206 10317 20244 403560206 51010 $

시각: 01:54 (06:54 UTC)

예보

예보는 1 시간 30분 전, 05:24시(UTC)에 발표되었습니다.
예보 대상 시간: 21일 06시부터 22일 06시까지 (UTC)
4kt
시정: 10km
고도 25000ft 상공 구름 보통
21일 1600시부터 (UTC)
남서6kt
시정: 10km
고도 4500ft 상공 구름 보통
21일 2100시부터 (UTC)
여러 방향의 바람 3kt
시정: 10km
고도 4500ft 상공 구름 보통, 적란운.
고도 25000ft 상공 구름 보통
시계 내 뇌우
22일 0200시부터 (UTC)
여러 방향의 바람 3kt
시정: 10km
고도 4500ft 상공 구름 많음
고도 15000ft 상공 구름 많음
시계 내 소나기

TAF: KTUP 210524Z 2106/2206 18004KT P6SM SCT250 FM211600 23006KT P6SM SCT045 FM212100 VRB03KT P6SM VCTS SCT045CB SCT250 FM220200 VRB03KT P6SM VCSH BKN045 BKN150

4,000개 이상의 공항 관측 자료 및 예보 (METAR 및 TAF 보고).

지도상에서 검색 가능한 기상관측소가 노란 점과 빨간 점으로 표시되어 있습니다.

기상관측소 명을 보려면 표시 위로 마우스를 이동하세요.

날씨 관측과 예보를 보려면 클릭하세요.

지도 변경 : 확대하려면 엑스 표시가 있는 녹색 버튼, 축소하려면 빼기 표시가 있는 녹색 버튼, 다음 페이지의 지도를 보려면 녹색 화살표를 클릭하세요.


METAR-TAF: